createdAt,value
2018-06-22T00:00:07.232Z,64.24
2018-06-22T00:00:38.894Z,64.41
2018-06-22T00:01:10.482Z,64.41
2018-06-22T00:01:42.076Z,64.39
2018-06-22T00:02:13.661Z,64.27
2018-06-22T00:02:45.266Z,64.05
2018-06-22T00:03:16.872Z,64.25
2018-06-22T00:03:48.457Z,64.28
2018-06-22T00:04:20.070Z,64.13
2018-06-22T00:04:51.658Z,64.35
2018-06-22T00:05:23.305Z,64.20
2018-06-22T00:05:54.935Z,64.04
2018-06-22T00:06:26.514Z,63.84
2018-06-22T00:06:58.122Z,64.06
2018-06-22T00:07:29.733Z,63.91
2018-06-22T00:08:01.403Z,63.74
2018-06-22T00:08:32.985Z,64.09
2018-06-22T00:09:04.560Z,64.16
2018-06-22T00:09:36.141Z,64.01
2018-06-22T00:10:07.746Z,63.79
2018-06-22T00:10:39.334Z,63.84
2018-06-22T00:11:10.937Z,64.15
2018-06-22T00:11:42.546Z,63.92
2018-06-22T00:12:14.157Z,64.01
2018-06-22T00:12:45.737Z,64.23
2018-06-22T00:13:17.367Z,64.55
2018-06-22T00:13:48.960Z,64.43
2018-06-22T00:14:20.569Z,64.43
2018-06-22T00:14:52.157Z,64.51
2018-06-22T00:15:23.724Z,64.49
2018-06-22T00:15:55.306Z,64.40
2018-06-22T00:16:26.885Z,64.45
2018-06-22T00:16:58.469Z,64.37
2018-06-22T00:17:30.051Z,64.32
2018-06-22T00:18:01.653Z,64.41
2018-06-22T00:18:33.266Z,64.37
2018-06-22T00:19:04.862Z,64.45
2018-06-22T00:19:36.441Z,64.43
2018-06-22T00:20:08.026Z,64.38
2018-06-22T00:20:39.629Z,64.40
2018-06-22T00:21:11.242Z,64.41
2018-06-22T00:21:42.839Z,64.47
2018-06-22T00:22:14.445Z,64.35
2018-06-22T00:22:46.074Z,64.27
2018-06-22T00:23:17.660Z,64.31
2018-06-22T00:23:49.251Z,64.38
2018-06-22T00:24:20.860Z,64.04
2018-06-22T00:24:52.441Z,64.00
2018-06-22T00:25:24.049Z,63.87
2018-06-22T00:25:55.652Z,63.82
2018-06-22T00:26:27.224Z,63.74
2018-06-22T00:26:58.796Z,63.82
2018-06-22T00:27:30.431Z,63.67
2018-06-22T00:28:02.045Z,63.75
2018-06-22T00:28:33.649Z,63.62
2018-06-22T00:29:05.244Z,63.67
2018-06-22T00:29:36.850Z,63.73
2018-06-22T00:30:08.445Z,63.65
2018-06-22T00:30:40.034Z,63.67
2018-06-22T00:31:11.617Z,63.68
2018-06-22T00:31:43.221Z,63.83
2018-06-22T00:32:14.792Z,63.87
2018-06-22T00:32:46.437Z,63.77
2018-06-22T00:33:18.022Z,63.87
2018-06-22T00:33:49.602Z,63.92
2018-06-22T00:34:21.235Z,64.07
2018-06-22T00:34:52.849Z,64.06
2018-06-22T00:35:24.457Z,64.33
2018-06-22T00:35:56.070Z,64.37
2018-06-22T00:36:27.677Z,64.35
2018-06-22T00:36:59.262Z,64.43
2018-06-22T00:37:30.872Z,64.27
2018-06-22T00:38:02.482Z,64.28
2018-06-22T00:38:34.080Z,64.35
2018-06-22T00:39:05.656Z,64.74
2018-06-22T00:39:37.238Z,64.52
2018-06-22T00:40:08.878Z,64.67
2018-06-22T00:40:40.486Z,64.48
2018-06-22T00:41:12.101Z,64.45
2018-06-22T00:41:43.753Z,64.47
2018-06-22T00:42:15.341Z,64.44
2018-06-22T00:42:46.926Z,64.56
2018-06-22T00:43:18.506Z,64.52
2018-06-22T00:43:50.090Z,64.44
2018-06-22T00:44:21.664Z,64.42
2018-06-22T00:44:53.255Z,64.46
2018-06-22T00:45:24.856Z,64.45
2018-06-22T00:45:56.437Z,64.81
2018-06-22T00:46:28.012Z,64.55
2018-06-22T00:46:59.652Z,64.56
2018-06-22T00:47:31.237Z,64.55
2018-06-22T00:48:02.822Z,64.46
2018-06-22T00:48:34.424Z,64.65
2018-06-22T00:49:06.014Z,64.70
2018-06-22T00:49:37.608Z,64.80
2018-06-22T00:50:09.194Z,64.75
2018-06-22T00:50:40.774Z,64.68
2018-06-22T00:51:12.368Z,64.66
2018-06-22T00:51:43.948Z,64.79
2018-06-22T00:52:15.560Z,64.78
2018-06-22T00:52:47.166Z,64.74
2018-06-22T00:53:18.768Z,64.95
2018-06-22T00:53:50.363Z,65.10
2018-06-22T00:54:21.973Z,65.02
2018-06-22T00:54:53.580Z,64.86
2018-06-22T00:55:25.152Z,64.80
2018-06-22T00:55:56.754Z,64.76
2018-06-22T00:56:28.391Z,65.09
2018-06-22T00:57:00.005Z,65.09
2018-06-22T00:57:31.657Z,65.07
2018-06-22T00:58:03.242Z,64.88
2018-06-22T00:58:34.831Z,65.06
2018-06-22T00:59:06.441Z,65.04
2018-06-22T00:59:38.049Z,65.20
2018-06-22T01:00:09.619Z,65.27
2018-06-22T01:00:41.196Z,65.15
2018-06-22T01:01:12.777Z,65.09
2018-06-22T01:01:44.381Z,65.12
2018-06-22T01:02:15.996Z,65.22
2018-06-22T01:02:47.574Z,65.38
2018-06-22T01:03:19.181Z,65.29
2018-06-22T01:03:50.790Z,65.34
2018-06-22T01:04:22.373Z,65.47
2018-06-22T01:04:53.944Z,65.36
2018-06-22T01:05:25.516Z,65.50
2018-06-22T01:05:57.141Z,65.44
2018-06-22T01:06:28.741Z,65.30
2018-06-22T01:07:00.389Z,65.93
2018-06-22T01:07:31.983Z,65.88
2018-06-22T01:08:03.589Z,65.68
2018-06-22T01:08:35.197Z,65.65
2018-06-22T01:09:06.786Z,65.67
2018-06-22T01:09:38.369Z,65.44
2018-06-22T01:10:09.953Z,65.53
2018-06-22T01:10:41.526Z,65.44
2018-06-22T01:11:13.169Z,65.41
2018-06-22T01:11:44.857Z,65.40
2018-06-22T01:12:16.501Z,65.37
2018-06-22T01:12:48.105Z,65.21
2018-06-22T01:13:19.699Z,65.18
2018-06-22T01:13:51.338Z,65.14
2018-06-22T01:14:22.908Z,65.18
2018-06-22T01:14:54.479Z,65.14
2018-06-22T01:15:26.081Z,65.33
2018-06-22T01:15:57.698Z,65.31
2018-06-22T01:16:29.276Z,65.17
2018-06-22T01:17:00.877Z,65.13
2018-06-22T01:17:32.465Z,65.16
2018-06-22T01:18:04.060Z,64.99
2018-06-22T01:18:35.745Z,65.10
2018-06-22T01:19:07.393Z,65.10
2018-06-22T01:19:38.989Z,65.08
2018-06-22T01:20:10.574Z,64.99
2018-06-22T01:20:42.158Z,64.98
2018-06-22T01:21:13.752Z,65.13
2018-06-22T01:21:45.323Z,64.94
2018-06-22T01:22:16.942Z,64.93
2018-06-22T01:22:48.566Z,64.84
2018-06-22T01:23:20.162Z,64.77
2018-06-22T01:23:51.750Z,64.70
2018-06-22T01:24:23.376Z,64.73
2018-06-22T01:24:54.982Z,64.89
2018-06-22T01:25:26.566Z,64.79
2018-06-22T01:25:58.146Z,64.98
2018-06-22T01:26:29.730Z,65.32
2018-06-22T01:27:01.338Z,65.18
2018-06-22T01:27:32.954Z,65.11
2018-06-22T01:28:04.538Z,65.15
2018-06-22T01:28:36.165Z,64.96
2018-06-22T01:29:07.745Z,65.48
2018-06-22T01:29:39.348Z,65.10
2018-06-22T01:30:10.926Z,64.62
2018-06-22T01:30:42.506Z,64.40
2018-06-22T01:31:14.076Z,63.93
2018-06-22T01:31:45.662Z,63.74
2018-06-22T01:32:17.246Z,63.75
2018-06-22T01:32:48.847Z,64.07
2018-06-22T01:33:20.433Z,64.10
2018-06-22T01:33:52.078Z,64.96
2018-06-22T01:34:23.765Z,64.42
2018-06-22T01:34:55.378Z,64.19
2018-06-22T01:35:26.976Z,64.57
2018-06-22T01:35:58.581Z,64.66
2018-06-22T01:36:30.198Z,64.24
2018-06-22T01:37:01.797Z,64.43
2018-06-22T01:37:33.422Z,64.36
2018-06-22T01:38:05.009Z,64.87
2018-06-22T01:38:36.613Z,64.63
2018-06-22T01:39:08.242Z,64.43
2018-06-22T01:39:39.844Z,65.15
2018-06-22T01:40:11.433Z,64.93
2018-06-22T01:40:43.004Z,65.18
2018-06-22T01:41:14.629Z,64.99
2018-06-22T01:41:46.228Z,64.66
2018-06-22T01:42:17.837Z,64.51
2018-06-22T01:42:49.446Z,64.59
2018-06-22T01:43:21.097Z,64.58
2018-06-22T01:43:52.686Z,64.38
2018-06-22T01:44:24.357Z,64.35
2018-06-22T01:44:55.937Z,64.58
2018-06-22T01:45:27.546Z,64.65
2018-06-22T01:45:59.157Z,64.67
2018-06-22T01:46:30.765Z,64.86
2018-06-22T01:47:02.360Z,65.21
2018-06-22T01:47:33.965Z,64.73
2018-06-22T01:48:05.618Z,64.86
2018-06-22T01:48:37.224Z,64.46
2018-06-22T01:49:08.861Z,64.68
2018-06-22T01:49:40.473Z,65.30
2018-06-22T01:50:12.067Z,64.88
2018-06-22T01:50:43.674Z,64.59
2018-06-22T01:51:15.281Z,64.85
2018-06-22T01:51:46.893Z,64.92
2018-06-22T01:52:18.478Z,64.91
2018-06-22T01:52:50.081Z,64.63
2018-06-22T01:53:22.723Z,64.48
2018-06-22T01:53:54.313Z,64.61
2018-06-22T01:54:25.917Z,64.62
2018-06-22T01:54:57.510Z,64.51
2018-06-22T01:55:29.081Z,64.48
2018-06-22T01:56:00.689Z,64.52
2018-06-22T01:56:32.264Z,64.50
2018-06-22T01:57:03.914Z,64.36
2018-06-22T01:57:35.512Z,64.03
2018-06-22T01:58:07.169Z,64.65
2018-06-22T01:58:38.763Z,64.99
2018-06-22T01:59:10.381Z,65.37
2018-06-22T01:59:41.951Z,65.33
2018-06-22T02:00:13.543Z,65.15
2018-06-22T02:00:45.137Z,64.47
2018-06-22T02:01:16.733Z,65.56
2018-06-22T02:01:48.309Z,64.87
2018-06-22T02:02:19.963Z,65.45
2018-06-22T02:02:51.541Z,65.35
2018-06-22T02:03:23.190Z,64.52
2018-06-22T02:03:54.781Z,65.56
2018-06-22T02:04:26.376Z,65.06
2018-06-22T02:04:57.987Z,65.01
2018-06-22T02:05:29.596Z,64.54
2018-06-22T02:06:01.296Z,64.69
2018-06-22T02:06:32.882Z,64.70
2018-06-22T02:07:04.465Z,64.55
2018-06-22T02:07:36.060Z,64.39
2018-06-22T02:08:07.627Z,64.40
2018-06-22T02:08:39.425Z,64.14
2018-06-22T02:09:10.996Z,64.20
2018-06-22T02:09:42.601Z,64.37
2018-06-22T02:10:14.195Z,64.51
2018-06-22T02:10:45.811Z,64.31
2018-06-22T02:11:17.407Z,64.34
2018-06-22T02:11:49.012Z,64.53
2018-06-22T02:12:20.617Z,64.39
2018-06-22T02:12:52.206Z,64.64
2018-06-22T02:13:23.808Z,64.49
2018-06-22T02:13:55.446Z,64.34
2018-06-22T02:14:27.020Z,64.39
2018-06-22T02:14:58.621Z,64.12
2018-06-22T02:15:30.230Z,64.27
2018-06-22T02:16:01.836Z,64.27
2018-06-22T02:16:33.432Z,64.74
2018-06-22T02:17:05.027Z,64.54
2018-06-22T02:17:36.596Z,64.36
2018-06-22T02:18:08.187Z,64.51
2018-06-22T02:18:39.769Z,64.28
2018-06-22T02:19:11.413Z,64.40
2018-06-22T02:19:42.987Z,64.31
2018-06-22T02:20:14.589Z,64.38
2018-06-22T02:20:46.178Z,64.35
2018-06-22T02:21:17.757Z,64.20
2018-06-22T02:21:49.362Z,64.31
2018-06-22T02:22:20.988Z,64.46
2018-06-22T02:22:52.565Z,64.55
2018-06-22T02:23:24.165Z,64.49
2018-06-22T02:23:55.772Z,64.45
2018-06-22T02:24:27.362Z,64.19
2018-06-22T02:24:58.966Z,64.23
2018-06-22T02:25:30.573Z,64.52
2018-06-22T02:26:02.153Z,64.86
2018-06-22T02:26:33.757Z,64.47
2018-06-22T02:27:05.368Z,64.88
2018-06-22T02:27:37.003Z,64.69
2018-06-22T02:28:08.579Z,64.71
2018-06-22T02:28:40.161Z,64.25
2018-06-22T02:29:11.739Z,64.59
2018-06-22T02:29:43.341Z,64.64
2018-06-22T02:30:14.958Z,64.81
2018-06-22T02:30:46.617Z,64.85
2018-06-22T02:31:18.224Z,64.84
2018-06-22T02:31:49.852Z,64.87
2018-06-22T02:32:21.468Z,64.85
2018-06-22T02:32:53.054Z,63.96
2018-06-22T02:33:24.624Z,63.78
2018-06-22T02:33:56.229Z,64.07
2018-06-22T02:34:27.823Z,63.96
2018-06-22T02:34:59.429Z,64.35
2018-06-22T02:35:31.043Z,64.20
2018-06-22T02:36:02.636Z,64.67
2018-06-22T02:36:34.248Z,64.40
2018-06-22T02:37:05.843Z,64.72
2018-06-22T02:37:37.454Z,64.79
2018-06-22T02:38:09.092Z,64.51
2018-06-22T02:38:40.668Z,64.68
2018-06-22T02:39:12.240Z,65.17
2018-06-22T02:39:43.818Z,65.15
2018-06-22T02:40:15.389Z,64.90
2018-06-22T02:40:46.973Z,65.13
2018-06-22T02:41:18.565Z,66.26
2018-06-22T02:41:50.136Z,61.67
2018-06-22T02:42:21.749Z,55.38
2018-06-22T02:42:53.410Z,52.29
2018-06-22T02:43:25.030Z,49.35
2018-06-22T02:43:56.615Z,47.61
2018-06-22T02:44:28.207Z,48.10
2018-06-22T02:44:59.780Z,48.56
2018-06-22T02:45:31.395Z,47.04
2018-06-22T02:46:02.990Z,46.65
2018-06-22T02:46:34.588Z,46.48
2018-06-22T02:47:06.174Z,46.85
2018-06-22T02:47:37.758Z,45.65
2018-06-22T02:48:09.538Z,45.01
2018-06-22T02:48:41.141Z,44.35
2018-06-22T02:49:12.722Z,44.69
2018-06-22T02:49:44.329Z,44.82
2018-06-22T02:50:15.923Z,44.71
2018-06-22T02:50:47.510Z,44.61
2018-06-22T02:51:19.076Z,44.00
2018-06-22T02:51:50.658Z,43.57
2018-06-22T02:52:22.238Z,44.72
2018-06-22T02:52:53.841Z,45.19
2018-06-22T02:53:25.489Z,45.63
2018-06-22T02:53:57.095Z,46.45
2018-06-22T02:54:28.711Z,46.47
2018-06-22T02:55:00.283Z,46.97
2018-06-22T02:55:31.890Z,47.09
2018-06-22T02:56:03.489Z,47.44
2018-06-22T02:56:35.138Z,47.41
2018-06-22T02:57:06.719Z,48.47
2018-06-22T02:57:38.314Z,48.80
2018-06-22T02:58:09.938Z,48.92
2018-06-22T02:58:41.566Z,49.00
2018-06-22T02:59:13.156Z,49.17
2018-06-22T02:59:44.816Z,49.46
2018-06-22T03:00:16.374Z,50.19
2018-06-22T03:00:47.972Z,50.08
2018-06-22T03:01:19.562Z,50.21
2018-06-22T03:01:51.150Z,50.85
2018-06-22T03:02:22.756Z,50.98
2018-06-22T03:02:54.362Z,51.25
2018-06-22T03:03:25.940Z,52.02
2018-06-22T03:03:57.564Z,51.62
2018-06-22T03:04:29.149Z,51.74
2018-06-22T03:05:00.758Z,52.25
2018-06-22T03:05:32.356Z,52.37
2018-06-22T03:06:03.983Z,52.57
2018-06-22T03:06:35.562Z,52.46
2018-06-22T03:07:07.156Z,52.63
2018-06-22T03:07:38.742Z,52.73
2018-06-22T03:08:10.325Z,52.90
2018-06-22T03:08:41.940Z,52.98
2018-06-22T03:09:13.546Z,53.09
2018-06-22T03:09:45.161Z,53.31
2018-06-22T03:10:16.740Z,53.40
2018-06-22T03:10:48.317Z,53.54
2018-06-22T03:11:19.926Z,53.62
2018-06-22T03:11:51.533Z,53.63
2018-06-22T03:12:23.158Z,53.60
2018-06-22T03:12:54.762Z,53.68
2018-06-22T03:13:26.386Z,53.74
2018-06-22T03:13:57.989Z,53.78
2018-06-22T03:14:29.573Z,53.84
2018-06-22T03:15:01.148Z,53.96
2018-06-22T03:15:32.802Z,54.03
2018-06-22T03:16:04.394Z,54.12
2018-06-22T03:16:35.977Z,54.18
2018-06-22T03:17:07.565Z,54.26
2018-06-22T03:17:39.186Z,54.43
2018-06-22T03:18:10.784Z,54.50
2018-06-22T03:18:42.424Z,54.58
2018-06-22T03:19:14.024Z,54.68
2018-06-22T03:19:45.619Z,54.74
2018-06-22T03:20:17.211Z,54.88
2018-06-22T03:20:48.822Z,54.88
2018-06-22T03:21:20.426Z,55.00
2018-06-22T03:21:52.022Z,55.05
2018-06-22T03:22:23.641Z,55.11
2018-06-22T03:22:55.226Z,55.07
2018-06-22T03:23:26.807Z,55.12
2018-06-22T03:23:58.389Z,55.24
2018-06-22T03:24:29.969Z,55.28
2018-06-22T03:25:01.561Z,55.30
2018-06-22T03:25:33.160Z,55.37
2018-06-22T03:26:04.765Z,55.42
2018-06-22T03:26:36.410Z,55.45
2018-06-22T03:27:07.990Z,55.42
2018-06-22T03:27:39.559Z,55.48
2018-06-22T03:28:11.195Z,55.52
2018-06-22T03:28:42.802Z,55.53
2018-06-22T03:29:14.379Z,55.56
2018-06-22T03:29:45.981Z,55.64
2018-06-22T03:30:17.587Z,55.66
2018-06-22T03:30:49.177Z,55.67
2018-06-22T03:31:20.791Z,55.75
2018-06-22T03:31:52.464Z,55.84
2018-06-22T03:32:24.074Z,55.82
2018-06-22T03:32:55.657Z,55.88
2018-06-22T03:33:27.242Z,55.95
2018-06-22T03:33:58.831Z,55.91
2018-06-22T03:34:30.418Z,55.92
2018-06-22T03:35:02.088Z,55.95
2018-06-22T03:35:33.686Z,56.00
2018-06-22T03:36:05.304Z,55.98
2018-06-22T03:36:36.872Z,56.00
2018-06-22T03:37:08.517Z,56.02
2018-06-22T03:37:40.107Z,56.05
2018-06-22T03:38:11.680Z,56.18
2018-06-22T03:38:43.307Z,56.17
2018-06-22T03:39:14.927Z,56.20
2018-06-22T03:39:46.569Z,56.27
2018-06-22T03:40:18.416Z,56.28
2018-06-22T03:40:50.225Z,56.42
2018-06-22T03:41:22.001Z,56.32
2018-06-22T03:41:53.626Z,56.29
2018-06-22T03:42:25.214Z,56.30
2018-06-22T03:42:56.812Z,56.28
2018-06-22T03:43:28.441Z,56.31
2018-06-22T03:44:00.061Z,56.36
2018-06-22T03:44:31.653Z,56.39
2018-06-22T03:45:03.368Z,56.37
2018-06-22T03:45:34.992Z,56.40
2018-06-22T03:46:06.681Z,56.50
2018-06-22T03:46:38.314Z,56.50
2018-06-22T03:47:09.959Z,56.45
2018-06-22T03:47:41.582Z,56.49
2018-06-22T03:48:13.172Z,56.51
2018-06-22T03:48:44.768Z,56.55
2018-06-22T03:49:16.377Z,56.55
2018-06-22T03:49:47.962Z,56.61
2018-06-22T03:50:19.532Z,56.55
2018-06-22T03:50:51.138Z,56.63
2018-06-22T03:51:22.785Z,56.63
2018-06-22T03:51:54.373Z,56.63
2018-06-22T03:52:26.014Z,56.67
2018-06-22T03:52:57.617Z,56.70
2018-06-22T03:53:29.211Z,56.79
2018-06-22T03:54:00.784Z,56.77
2018-06-22T03:54:32.369Z,56.82
2018-06-22T03:55:03.953Z,56.86
2018-06-22T03:55:35.552Z,56.88
2018-06-22T03:56:07.140Z,56.88
2018-06-22T03:56:38.743Z,57.00
2018-06-22T03:57:10.325Z,57.06
2018-06-22T03:57:41.921Z,57.05
2018-06-22T03:58:13.533Z,57.07
2018-06-22T03:58:45.158Z,57.09
2018-06-22T03:59:16.790Z,57.08
2018-06-22T03:59:48.375Z,57.23
2018-06-22T04:00:19.974Z,57.24
2018-06-22T04:00:51.569Z,57.17
2018-06-22T04:01:23.182Z,57.24
2018-06-22T04:01:54.782Z,57.23
2018-06-22T04:02:26.386Z,57.19
2018-06-22T04:02:57.969Z,57.14
2018-06-22T04:03:29.577Z,57.10
2018-06-22T04:04:01.234Z,57.05
2018-06-22T04:04:32.831Z,56.98
2018-06-22T04:05:04.437Z,56.96
2018-06-22T04:05:36.062Z,56.94
2018-06-22T04:06:07.649Z,56.92
2018-06-22T04:06:39.240Z,56.72
2018-06-22T04:07:10.813Z,56.78
2018-06-22T04:07:42.410Z,56.79
2018-06-22T04:08:14.106Z,56.67
2018-06-22T04:08:45.686Z,56.65
2018-06-22T04:09:17.305Z,56.64
2018-06-22T04:09:48.908Z,56.56
2018-06-22T04:10:20.507Z,56.52
2018-06-22T04:10:52.094Z,56.57
2018-06-22T04:11:23.713Z,56.42
2018-06-22T04:11:55.305Z,56.36
2018-06-22T04:12:26.880Z,56.30
2018-06-22T04:12:58.485Z,56.26
2018-06-22T04:13:30.145Z,56.24
2018-06-22T04:14:01.746Z,56.20
2018-06-22T04:14:33.329Z,56.19
2018-06-22T04:15:04.918Z,56.17
2018-06-22T04:15:36.501Z,56.11
2018-06-22T04:16:08.121Z,56.04
2018-06-22T04:16:39.704Z,55.96
2018-06-22T04:17:11.298Z,55.87
2018-06-22T04:17:42.878Z,55.73
2018-06-22T04:18:14.477Z,55.54
2018-06-22T04:18:46.081Z,55.28
2018-06-22T04:19:17.680Z,54.90
2018-06-22T04:19:49.293Z,54.45
2018-06-22T04:20:20.913Z,53.89
2018-06-22T04:20:52.508Z,53.27
2018-06-22T04:21:24.165Z,52.71
2018-06-22T04:21:56.382Z,52.17
2018-06-22T04:22:27.981Z,51.71
2018-06-22T04:22:59.580Z,51.36
2018-06-22T04:23:31.151Z,51.10
2018-06-22T04:24:02.738Z,51.00
2018-06-22T04:24:34.329Z,50.87
2018-06-22T04:25:05.925Z,50.79
2018-06-22T04:25:37.524Z,50.95
2018-06-22T04:26:09.111Z,51.83
2018-06-22T04:26:40.748Z,52.80
2018-06-22T04:27:12.342Z,53.66
2018-06-22T04:27:43.954Z,54.35
2018-06-22T04:28:15.528Z,54.92
2018-06-22T04:28:47.133Z,55.39
2018-06-22T04:29:18.747Z,55.68
2018-06-22T04:29:50.334Z,55.25
2018-06-22T04:30:21.948Z,55.10
2018-06-22T04:30:53.541Z,55.04
2018-06-22T04:31:25.120Z,55.20
2018-06-22T04:31:56.789Z,55.48
2018-06-22T04:32:28.425Z,55.66
2018-06-22T04:33:00.000Z,54.84
2018-06-22T04:33:31.591Z,52.91
2018-06-22T04:34:03.188Z,51.55
2018-06-22T04:34:34.777Z,50.89
2018-06-22T04:35:06.377Z,50.53
2018-06-22T04:35:37.962Z,50.72
2018-06-22T04:36:09.565Z,51.45
2018-06-22T04:36:41.157Z,52.51
2018-06-22T04:37:12.786Z,52.87
2018-06-22T04:37:44.393Z,52.49
2018-06-22T04:38:16.004Z,51.56
2018-06-22T04:38:47.686Z,50.76
2018-06-22T04:39:19.206Z,50.22
2018-06-22T04:39:50.790Z,50.00
2018-06-22T04:40:22.392Z,49.93
2018-06-22T04:40:54.010Z,49.70
2018-06-22T04:41:25.622Z,49.46
2018-06-22T04:41:57.229Z,49.66
2018-06-22T04:42:28.851Z,50.03
2018-06-22T04:43:00.432Z,49.67
2018-06-22T04:43:32.004Z,49.19
2018-06-22T04:44:03.632Z,48.81
2018-06-22T04:44:35.246Z,48.47
2018-06-22T04:45:06.820Z,48.15
2018-06-22T04:45:38.415Z,47.85
2018-06-22T04:46:10.007Z,48.43
2018-06-22T04:46:41.592Z,49.82
2018-06-22T04:47:13.173Z,51.05
2018-06-22T04:47:44.801Z,52.10
2018-06-22T04:48:16.458Z,53.04
2018-06-22T04:48:48.042Z,53.84
2018-06-22T04:49:19.654Z,54.54
2018-06-22T04:49:51.272Z,55.07
2018-06-22T04:50:22.884Z,55.51
2018-06-22T04:50:54.537Z,55.78
2018-06-22T04:51:26.147Z,56.11
2018-06-22T04:51:57.737Z,55.86
2018-06-22T04:52:29.334Z,54.39
2018-06-22T04:53:00.918Z,54.44
2018-06-22T04:53:32.530Z,54.82
2018-06-22T04:54:04.142Z,54.90
2018-06-22T04:54:35.716Z,55.36
2018-06-22T04:55:07.293Z,55.80
2018-06-22T04:55:38.904Z,56.12
2018-06-22T04:56:10.533Z,56.42
2018-06-22T04:56:42.134Z,56.56
2018-06-22T04:57:13.746Z,56.68
2018-06-22T04:57:45.315Z,56.82
2018-06-22T04:58:16.892Z,56.97
2018-06-22T04:58:48.557Z,57.14
2018-06-22T04:59:20.142Z,57.28
2018-06-22T04:59:51.725Z,57.40
2018-06-22T05:00:23.378Z,57.50
2018-06-22T05:00:54.993Z,57.63
2018-06-22T05:01:26.578Z,57.68
2018-06-22T05:01:58.181Z,57.72
2018-06-22T05:02:29.760Z,57.79
2018-06-22T05:03:01.361Z,57.87
2018-06-22T05:03:33.020Z,57.89
2018-06-22T05:04:04.596Z,57.86
2018-06-22T05:04:36.168Z,57.64
2018-06-22T05:05:07.769Z,57.51
2018-06-22T05:05:39.429Z,57.54
2018-06-22T05:06:11.008Z,57.56
2018-06-22T05:06:42.608Z,57.54
2018-06-22T05:07:14.285Z,57.44
2018-06-22T05:07:45.869Z,57.42
2018-06-22T05:08:17.444Z,57.43
2018-06-22T05:08:49.016Z,57.50
2018-06-22T05:09:20.623Z,57.60
2018-06-22T05:09:52.243Z,57.67
2018-06-22T05:10:23.825Z,57.74
2018-06-22T05:10:55.445Z,57.82
2018-06-22T05:11:27.036Z,57.86
2018-06-22T05:11:58.622Z,57.93
2018-06-22T05:12:30.265Z,57.95
2018-06-22T05:13:01.874Z,58.01
2018-06-22T05:13:33.444Z,58.04
2018-06-22T05:14:05.035Z,58.08
2018-06-22T05:14:36.621Z,58.07
2018-06-22T05:15:08.190Z,58.11
2018-06-22T05:15:39.830Z,58.13
2018-06-22T05:16:11.394Z,58.15
2018-06-22T05:16:43.001Z,58.20
2018-06-22T05:17:14.649Z,58.22
2018-06-22T05:17:46.217Z,58.24
2018-06-22T05:18:17.837Z,58.25
2018-06-22T05:18:49.445Z,58.26
2018-06-22T05:19:21.029Z,58.31
2018-06-22T05:19:52.624Z,58.29
2018-06-22T05:20:24.210Z,58.33
2018-06-22T05:20:55.820Z,58.33
2018-06-22T05:21:27.432Z,58.34
2018-06-22T05:21:59.174Z,58.37
2018-06-22T05:22:30.992Z,58.36
2018-06-22T05:23:02.581Z,58.38
2018-06-22T05:23:38.662Z,58.38
2018-06-22T05:24:10.269Z,58.39
2018-06-22T05:24:41.879Z,58.41
2018-06-22T05:25:13.466Z,58.40
2018-06-22T05:25:45.038Z,58.43
2018-06-22T05:26:16.718Z,58.44
2018-06-22T05:26:48.305Z,58.45
2018-06-22T05:27:26.273Z,58.45
2018-06-22T05:27:58.116Z,58.46
2018-06-22T05:28:40.221Z,58.46
2018-06-22T05:29:12.355Z,58.46
2018-06-22T05:29:44.094Z,58.48
2018-06-22T05:30:15.760Z,58.49
2018-06-22T05:30:47.313Z,58.49
2018-06-22T05:31:18.968Z,58.48
2018-06-22T05:31:50.551Z,58.49
2018-06-22T05:32:22.684Z,58.49
2018-06-22T05:32:54.309Z,58.50
2018-06-22T05:33:25.881Z,58.52
2018-06-22T05:33:57.469Z,58.52
2018-06-22T05:34:29.078Z,58.54
2018-06-22T05:35:00.999Z,58.53
2018-06-22T05:35:34.172Z,58.56
2018-06-22T05:36:06.419Z,58.56
2018-06-22T05:36:38.475Z,58.56
2018-06-22T05:37:10.545Z,58.57
2018-06-22T05:37:43.720Z,58.57
2018-06-22T05:38:15.345Z,58.56
2018-06-22T05:38:47.018Z,58.57
2018-06-22T05:39:18.610Z,58.58
2018-06-22T05:39:50.223Z,58.59
2018-06-22T05:40:23.141Z,58.57
2018-06-22T05:40:55.494Z,58.57
2018-06-22T05:41:27.730Z,58.57
2018-06-22T05:42:00.563Z,58.60
2018-06-22T05:42:32.195Z,58.62
2018-06-22T05:43:05.039Z,58.59
2018-06-22T05:43:37.682Z,58.59
2018-06-22T05:44:09.283Z,58.62
2018-06-22T05:44:42.173Z,58.62
2018-06-22T05:45:13.967Z,58.60
2018-06-22T05:45:45.566Z,58.60
2018-06-22T05:46:17.643Z,58.63
2018-06-22T05:46:49.285Z,58.64
2018-06-22T05:47:20.898Z,58.64
2018-06-22T05:47:52.482Z,58.63
2018-06-22T05:48:24.068Z,58.63
2018-06-22T05:48:55.728Z,58.64
2018-06-22T05:49:27.587Z,58.67
2018-06-22T05:49:59.206Z,58.68
2018-06-22T05:50:33.250Z,58.66
2018-06-22T05:51:05.205Z,58.66
2018-06-22T05:51:37.240Z,58.67
2018-06-22T05:52:09.049Z,58.69
2018-06-22T05:52:40.703Z,58.69
2018-06-22T05:53:12.324Z,58.68
2018-06-22T05:53:43.929Z,58.70
2018-06-22T05:54:15.870Z,58.69
2018-06-22T05:54:49.248Z,58.72
2018-06-22T05:55:31.104Z,58.70
2018-06-22T05:56:02.687Z,58.69
2018-06-22T05:56:35.022Z,58.69
2018-06-22T05:57:06.654Z,58.67
2018-06-22T05:57:38.440Z,58.69
2018-06-22T05:58:10.024Z,58.68
2018-06-22T05:58:41.650Z,58.67
2018-06-22T05:59:13.293Z,58.67
2018-06-22T05:59:44.902Z,58.67
2018-06-22T06:00:16.504Z,58.67
2018-06-22T06:00:48.114Z,58.69
2018-06-22T06:01:19.692Z,58.69
2018-06-22T06:01:51.502Z,58.71
2018-06-22T06:02:23.096Z,58.69
2018-06-22T06:02:54.672Z,58.69
2018-06-22T06:03:26.298Z,58.69
2018-06-22T06:03:57.871Z,58.70
2018-06-22T06:04:37.594Z,58.70
2018-06-22T06:05:09.789Z,58.72
2018-06-22T06:05:41.365Z,58.74
2018-06-22T06:06:12.956Z,58.72
2018-06-22T06:06:44.542Z,58.74
2018-06-22T06:07:16.176Z,58.74
2018-06-22T06:07:47.767Z,58.74
2018-06-22T06:08:19.377Z,58.74
2018-06-22T06:08:50.986Z,58.77
2018-06-22T06:09:23.841Z,58.78
2018-06-22T06:09:55.653Z,58.79
2018-06-22T06:10:27.246Z,58.79
2018-06-22T06:10:58.880Z,58.82
2018-06-22T06:11:30.466Z,58.82
2018-06-22T06:12:02.096Z,58.82
2018-06-22T06:12:35.488Z,58.81
2018-06-22T06:13:07.058Z,58.83
2018-06-22T06:13:38.646Z,58.84
2018-06-22T06:14:10.294Z,58.83
2018-06-22T06:14:41.865Z,58.81
2018-06-22T06:15:13.446Z,58.84
2018-06-22T06:15:45.034Z,58.84
2018-06-22T06:16:16.628Z,58.83
2018-06-22T06:16:48.208Z,58.82
2018-06-22T06:17:19.857Z,58.82
2018-06-22T06:17:51.441Z,58.85
2018-06-22T06:18:23.041Z,58.85
2018-06-22T06:18:54.613Z,58.85
2018-06-22T06:19:26.184Z,58.85
2018-06-22T06:19:57.768Z,58.86
2018-06-22T06:20:29.369Z,58.87
2018-06-22T06:21:00.968Z,58.86
2018-06-22T06:21:32.585Z,58.87
2018-06-22T06:22:04.189Z,58.86
2018-06-22T06:22:35.817Z,58.86
2018-06-22T06:23:07.408Z,58.86
2018-06-22T06:23:39.013Z,58.85
2018-06-22T06:24:11.490Z,58.85
2018-06-22T06:24:46.637Z,58.86
2018-06-22T06:25:23.596Z,58.87
2018-06-22T06:26:07.832Z,58.88
2018-06-22T06:26:57.193Z,58.88
2018-06-22T06:27:28.804Z,58.89
2018-06-22T06:28:00.376Z,58.89
2018-06-22T06:28:31.943Z,58.90
2018-06-22T06:29:03.594Z,58.90
2018-06-22T06:29:35.181Z,58.91
2018-06-22T06:30:06.796Z,58.90
2018-06-22T06:30:38.376Z,58.91
2018-06-22T06:31:09.983Z,58.92
2018-06-22T06:31:41.573Z,58.93
2018-06-22T06:32:13.164Z,58.94
2018-06-22T06:32:44.736Z,58.95
2018-06-22T06:33:16.312Z,58.96
2018-06-22T06:33:47.916Z,58.96
2018-06-22T06:34:19.585Z,58.98
2018-06-22T06:34:51.197Z,58.97
2018-06-22T06:35:22.782Z,58.95
2018-06-22T06:35:54.375Z,58.95
2018-06-22T06:36:25.987Z,58.96
2018-06-22T06:36:57.597Z,58.96
2018-06-22T06:37:29.201Z,59.00
2018-06-22T06:38:00.789Z,59.01
2018-06-22T06:38:32.356Z,59.02
2018-06-22T06:39:03.960Z,59.02
2018-06-22T06:39:35.573Z,59.03
2018-06-22T06:40:07.221Z,59.03
2018-06-22T06:40:38.849Z,59.03
2018-06-22T06:41:10.429Z,59.04
2018-06-22T06:41:42.024Z,59.04
2018-06-22T06:42:13.623Z,59.04
2018-06-22T06:42:45.210Z,59.04
2018-06-22T06:43:16.933Z,59.05
2018-06-22T06:43:48.535Z,59.05
2018-06-22T06:44:20.108Z,59.05
2018-06-22T06:44:51.724Z,59.04
2018-06-22T06:45:23.302Z,59.06
2018-06-22T06:45:54.904Z,59.05
2018-06-22T06:46:26.549Z,59.05
2018-06-22T06:46:58.130Z,59.05
2018-06-22T06:47:29.709Z,59.05
2018-06-22T06:48:01.313Z,59.05
2018-06-22T06:48:32.962Z,59.04